createdAt,value
2023-08-10T00:01:03.036Z,98436.53
2023-08-10T00:02:06.475Z,98442.91
2023-08-10T00:03:10.587Z,98443.03
2023-08-10T00:04:14.081Z,98441.03
2023-08-10T00:05:17.250Z,98445.41
2023-08-10T00:06:21.099Z,98445.69
2023-08-10T00:07:24.125Z,98443.06
2023-08-10T00:08:27.212Z,98440.56
2023-08-10T00:09:30.205Z,98445.41
2023-08-10T00:10:33.224Z,98438.25
2023-08-10T00:11:36.668Z,98447.44
2023-08-10T00:12:39.961Z,98440.13
2023-08-10T00:13:43.294Z,98440.44
2023-08-10T00:14:46.239Z,98447.09
2023-08-10T00:15:49.352Z,98437.97
2023-08-10T00:16:52.400Z,98439.81
2023-08-10T00:17:55.461Z,98434.56
2023-08-10T00:18:58.521Z,98435.97
2023-08-10T00:20:01.424Z,98437.38
2023-08-10T00:21:05.287Z,98435.94
2023-08-10T00:22:08.335Z,98444.28
2023-08-10T00:23:12.444Z,98441.38
2023-08-10T00:24:15.487Z,98436.72
2023-08-10T00:25:18.438Z,98444.16
2023-08-10T00:26:21.317Z,98432.84
2023-08-10T00:27:25.651Z,98439.03
2023-08-10T00:28:28.680Z,98440.59
2023-08-10T00:29:31.549Z,98441.22
2023-08-10T00:30:34.597Z,98436.09
2023-08-10T00:31:37.598Z,98435.78
2023-08-10T00:32:41.069Z,98432.69
2023-08-10T00:33:44.923Z,98439.22
2023-08-10T00:34:47.859Z,98431.91
2023-08-10T00:35:50.756Z,98433.31
2023-08-10T00:36:53.754Z,98432.84
2023-08-10T00:37:56.808Z,98434.38
2023-08-10T00:38:59.725Z,98433.59
2023-08-10T00:40:03.577Z,98432.06
2023-08-10T00:41:07.187Z,98429.44
2023-08-10T00:42:10.115Z,98436.56
2023-08-10T00:43:13.426Z,98433.31
2023-08-10T00:44:17.774Z,98432.06
2023-08-10T00:45:20.692Z,98432.22
2023-08-10T00:46:23.695Z,98431.72
2023-08-10T00:47:27.960Z,98433.59
2023-08-10T00:48:32.211Z,98428.03
2023-08-10T00:49:35.617Z,98432.53
2023-08-10T00:50:38.573Z,98424.16
2023-08-10T00:51:41.525Z,98428.94
2023-08-10T00:52:45.130Z,98437.31
2023-08-10T00:53:48.201Z,98427.25
2023-08-10T00:54:51.289Z,98428.94
2023-08-10T00:55:55.286Z,98427.88
2023-08-10T00:56:58.219Z,98427.56
2023-08-10T00:58:01.111Z,98421.22
2023-08-10T00:59:04.499Z,98433.59
2023-08-10T01:00:11.778Z,98426.47
2023-08-10T01:01:14.973Z,98426.78
2023-08-10T01:02:18.294Z,98426.28
2023-08-10T01:03:21.379Z,98433.13
2023-08-10T01:04:24.459Z,98419.34
2023-08-10T01:05:34.714Z,98421.97
2023-08-10T01:06:46.428Z,98429.38
2023-08-10T01:08:04.617Z,98429.88
2023-08-10T01:09:20.832Z,98435.12
2023-08-10T01:10:43.667Z,98436.19
2023-08-10T01:12:20.380Z,98437.28
2023-08-10T01:13:31.893Z,98434.50
2023-08-10T01:14:59.490Z,98437.44
2023-08-10T01:16:10.661Z,98432.16
2023-08-10T01:17:21.038Z,98429.84
2023-08-10T01:18:28.355Z,98430.00
2023-08-10T01:19:38.197Z,98434.00
2023-08-10T01:20:43.383Z,98437.13
2023-08-10T01:22:02.351Z,98440.38
2023-08-10T01:23:14.073Z,98437.72
2023-08-10T01:24:26.815Z,98434.78
2023-08-10T01:25:31.244Z,98436.97
2023-08-10T01:26:35.100Z,98438.03
2023-08-10T01:27:39.741Z,98438.19
2023-08-10T01:28:43.823Z,98437.25
2023-08-10T01:29:47.343Z,98436.34
2023-08-10T01:30:51.007Z,98441.47
2023-08-10T01:31:54.324Z,98430.13
2023-08-10T01:32:57.708Z,98434.94
2023-08-10T01:34:00.666Z,98436.63
2023-08-10T01:35:07.259Z,98437.38
2023-08-10T01:36:10.231Z,98434.91
2023-08-10T01:37:13.407Z,98440.47
2023-08-10T01:38:16.636Z,98438.94
2023-08-10T01:39:19.702Z,98440.03
2023-08-10T01:40:22.872Z,98438.78
2023-08-10T01:41:26.048Z,98445.13
2023-08-10T01:42:29.360Z,98446.09
2023-08-10T01:43:32.286Z,98443.63
2023-08-10T01:44:35.256Z,98442.38
2023-08-10T01:45:39.560Z,98438.31
2023-08-10T01:46:47.890Z,98440.03
2023-08-10T01:47:59.016Z,98444.69
2023-08-10T01:49:04.037Z,98439.69
2023-08-10T01:50:09.556Z,98445.72
2023-08-10T01:51:14.550Z,98440.31
2023-08-10T01:52:20.834Z,98435.50
2023-08-10T01:53:31.709Z,98438.59
2023-08-10T01:54:35.851Z,98431.50
2023-08-10T01:55:39.165Z,98437.06
2023-08-10T01:56:42.261Z,98435.06
2023-08-10T01:57:46.263Z,98435.81
2023-08-10T01:58:49.403Z,98432.13
2023-08-10T01:59:52.792Z,98430.41
2023-08-10T02:00:55.984Z,98432.72
2023-08-10T02:01:59.173Z,98427.44
2023-08-10T02:03:02.645Z,98438.47
2023-08-10T02:04:05.842Z,98423.75
2023-08-10T02:05:09.646Z,98434.28
2023-08-10T02:06:12.829Z,98435.34
2023-08-10T02:07:15.806Z,98440.31
2023-08-10T02:08:18.820Z,98434.91
2023-08-10T02:09:22.182Z,98442.66
2023-08-10T02:10:25.324Z,98437.69
2023-08-10T02:11:28.366Z,98435.19
2023-08-10T02:12:31.521Z,98432.56
2023-08-10T02:13:34.619Z,98440.00
2023-08-10T02:14:37.662Z,98435.19
2023-08-10T02:15:43.845Z,98436.28
2023-08-10T02:16:46.947Z,98430.25
2023-08-10T02:17:49.974Z,98432.09
2023-08-10T02:18:52.881Z,98429.47
2023-08-10T02:19:57.114Z,98439.37
2023-08-10T02:21:00.180Z,98431.16
2023-08-10T02:22:03.963Z,98434.12
2023-08-10T02:23:07.280Z,98432.25
2023-08-10T02:24:10.847Z,98427.00
2023-08-10T02:25:14.141Z,98431.34
2023-08-10T02:26:17.222Z,98432.91
2023-08-10T02:27:20.323Z,98433.34
2023-08-10T02:28:23.262Z,98428.09
2023-08-10T02:29:26.415Z,98431.03
2023-08-10T02:30:29.649Z,98438.16
2023-08-10T02:31:33.317Z,98432.41
2023-08-10T02:32:37.164Z,98426.53
2023-08-10T02:33:40.158Z,98427.31
2023-08-10T02:34:43.562Z,98423.00
2023-08-10T02:35:46.690Z,98431.53
2023-08-10T02:36:49.835Z,98423.91
2023-08-10T02:37:52.840Z,98424.53
2023-08-10T02:38:55.833Z,98428.53
2023-08-10T02:39:58.904Z,98427.00
2023-08-10T02:41:01.843Z,98422.97
2023-08-10T02:42:05.056Z,98427.78
2023-08-10T02:43:08.149Z,98423.28
2023-08-10T02:44:11.142Z,98416.94
2023-08-10T02:45:14.500Z,98423.13
2023-08-10T02:46:17.481Z,98420.78
2023-08-10T02:47:20.569Z,98419.53
2023-08-10T02:48:23.831Z,98429.03
2023-08-10T02:49:28.013Z,98422.50
2023-08-10T02:50:31.006Z,98423.87
2023-08-10T02:51:33.875Z,98424.81
2023-08-10T02:52:36.844Z,98433.16
2023-08-10T02:53:39.941Z,98429.16
2023-08-10T02:54:42.993Z,98430.25
2023-08-10T02:55:46.017Z,98424.97
2023-08-10T02:56:49.306Z,98434.72
2023-08-10T02:57:52.492Z,98425.75
2023-08-10T02:58:55.634Z,98432.09
2023-08-10T02:59:58.843Z,98424.19
2023-08-10T03:01:08.225Z,98435.34
2023-08-10T03:02:11.458Z,98427.09
2023-08-10T03:03:14.442Z,98424.19
2023-08-10T03:04:17.945Z,98424.19
2023-08-10T03:05:21.072Z,98425.88
2023-08-10T03:06:24.499Z,98419.69
2023-08-10T03:07:29.211Z,98420.59
2023-08-10T03:08:32.255Z,98419.03
2023-08-10T03:09:35.337Z,98415.94
2023-08-10T03:10:38.340Z,98422.16
2023-08-10T03:11:41.379Z,98426.16
2023-08-10T03:12:44.481Z,98419.34
2023-08-10T03:13:47.471Z,98423.06
2023-08-10T03:14:50.495Z,98429.41
2023-08-10T03:15:56.730Z,98427.22
2023-08-10T03:16:59.916Z,98424.16
2023-08-10T03:18:03.372Z,98430.19
2023-08-10T03:19:06.593Z,98427.06
2023-08-10T03:20:18.608Z,98430.19
2023-08-10T03:21:22.103Z,98427.84
2023-08-10T03:22:27.636Z,98413.13
2023-08-10T03:23:30.809Z,98419.00
2023-08-10T03:24:33.661Z,98415.28
2023-08-10T03:25:36.831Z,98416.53
2023-08-10T03:26:39.853Z,98416.84
2023-08-10T03:27:42.747Z,98423.63
2023-08-10T03:28:45.825Z,98424.56
2023-08-10T03:29:48.827Z,98423.16
2023-08-10T03:30:51.954Z,98430.75
2023-08-10T03:31:55.687Z,98428.88
2023-08-10T03:32:58.835Z,98430.75
2023-08-10T03:34:01.893Z,98431.03
2023-08-10T03:35:05.196Z,98430.28
2023-08-10T03:36:08.563Z,98432.13
2023-08-10T03:37:11.396Z,98433.03
2023-08-10T03:38:14.372Z,98435.66
2023-08-10T03:39:17.432Z,98433.94
2023-08-10T03:40:20.458Z,98441.94
2023-08-10T03:41:23.439Z,98444.56
2023-08-10T03:42:26.282Z,98449.56
2023-08-10T03:43:29.273Z,98449.41
2023-08-10T03:44:32.645Z,98447.59
2023-08-10T03:45:35.683Z,98453.63
2023-08-10T03:46:38.950Z,98446.63
2023-08-10T03:47:41.973Z,98453.44
2023-08-10T03:48:44.931Z,98457.31
2023-08-10T03:49:47.870Z,98463.38
2023-08-10T03:50:51.066Z,98459.78
2023-08-10T03:51:54.040Z,98462.41
2023-08-10T03:52:57.042Z,98460.34
2023-08-10T03:53:59.922Z,98459.31
2023-08-10T03:55:04.061Z,98464.25
2023-08-10T03:56:08.125Z,98462.72
2023-08-10T03:57:11.392Z,98470.09
2023-08-10T03:58:14.476Z,98473.34
2023-08-10T03:59:17.845Z,98464.97
2023-08-10T04:00:22.555Z,98466.81
2023-08-10T04:01:25.584Z,98469.44
2023-08-10T04:02:29.418Z,98462.63
2023-08-10T04:03:32.508Z,98466.81
2023-08-10T04:04:35.505Z,98466.81
2023-08-10T04:05:38.853Z,98466.38
2023-08-10T04:06:42.096Z,98465.34
2023-08-10T04:07:45.719Z,98465.81
2023-08-10T04:08:49.472Z,98462.41
2023-08-10T04:09:52.629Z,98471.56
2023-08-10T04:10:55.856Z,98467.22
2023-08-10T04:11:59.146Z,98466.28
2023-08-10T04:13:02.304Z,98472.94
2023-08-10T04:14:05.448Z,98465.19
2023-08-10T04:15:08.664Z,98477.47
2023-08-10T04:16:12.524Z,98469.41
2023-08-10T04:17:16.944Z,98476.66
2023-08-10T04:18:19.880Z,98475.38
2023-08-10T04:19:23.258Z,98483.00
2023-08-10T04:20:26.509Z,98482.06
2023-08-10T04:21:29.654Z,98476.03
2023-08-10T04:22:32.683Z,98471.44
2023-08-10T04:23:36.707Z,98477.63
2023-08-10T04:24:39.641Z,98480.28
2023-08-10T04:25:42.584Z,98481.97
2023-08-10T04:26:46.958Z,98474.22
2023-08-10T04:27:50.007Z,98478.13
2023-08-10T04:28:53.048Z,98483.06
2023-08-10T04:29:56.318Z,98466.03
2023-08-10T04:30:59.595Z,98476.25
2023-08-10T04:32:03.621Z,98479.38
2023-08-10T04:33:06.657Z,98482.91
2023-08-10T04:34:09.695Z,98479.97
2023-08-10T04:35:12.994Z,98478.59
2023-08-10T04:36:16.132Z,98480.62
2023-08-10T04:37:19.015Z,98484.94
2023-08-10T04:38:22.034Z,98479.50
2023-08-10T04:39:25.088Z,98482.28
2023-08-10T04:40:28.181Z,98478.78
2023-08-10T04:41:31.103Z,98481.56
2023-08-10T04:42:34.221Z,98484.69
2023-08-10T04:43:37.376Z,98477.84
2023-08-10T04:44:40.421Z,98480.47
2023-08-10T04:45:44.183Z,98478.66
2023-08-10T04:46:47.130Z,98469.94
2023-08-10T04:47:50.645Z,98475.69
2023-08-10T04:48:53.500Z,98469.81
2023-08-10T04:49:56.349Z,98479.59
2023-08-10T04:50:59.382Z,98477.37
2023-08-10T04:52:03.359Z,98481.44
2023-08-10T04:53:07.008Z,98475.56
2023-08-10T04:54:12.803Z,98477.72
2023-08-10T04:55:16.126Z,98476.03
2023-08-10T04:56:19.281Z,98478.84
2023-08-10T04:57:22.220Z,98478.03
2023-08-10T04:58:25.163Z,98483.19
2023-08-10T04:59:28.135Z,98475.00
2023-08-10T05:00:31.181Z,98482.28
2023-08-10T05:01:34.257Z,98484.59
2023-08-10T05:02:38.343Z,98490.63
2023-08-10T05:03:42.194Z,98494.72
2023-08-10T05:04:46.198Z,98493.91
2023-08-10T05:05:49.352Z,98490.38
2023-08-10T05:06:53.011Z,98492.87
2023-08-10T05:07:56.078Z,98483.72
2023-08-10T05:08:59.023Z,98494.56
2023-08-10T05:10:06.364Z,98493.19
2023-08-10T05:11:09.732Z,98498.31
2023-08-10T05:12:12.696Z,98496.31
2023-08-10T05:13:15.760Z,98495.38
2023-08-10T05:14:18.788Z,98494.00
2023-08-10T05:15:21.892Z,98496.50
2023-08-10T05:16:24.848Z,98497.13
2023-08-10T05:17:28.149Z,98492.03
2023-08-10T05:18:31.097Z,98497.44
2023-08-10T05:19:34.130Z,98493.13
2023-08-10T05:20:38.994Z,98493.16
2023-08-10T05:21:42.078Z,98490.97
2023-08-10T05:22:45.139Z,98494.06
2023-08-10T05:23:48.057Z,98494.72
2023-08-10T05:24:51.290Z,98493.78
2023-08-10T05:25:54.734Z,98492.41
2023-08-10T05:26:57.734Z,98496.75
2023-08-10T05:28:00.780Z,98496.28
2023-08-10T05:29:04.066Z,98496.28
2023-08-10T05:30:10.403Z,98494.28
2023-08-10T05:31:13.656Z,98499.41
2023-08-10T05:32:19.187Z,98494.75
2023-08-10T05:33:22.936Z,98498.78
2023-08-10T05:34:26.003Z,98501.69
2023-08-10T05:35:29.159Z,98501.69
2023-08-10T05:36:32.112Z,98496.25
2023-08-10T05:37:36.314Z,98497.16
2023-08-10T05:38:42.421Z,98497.44
2023-08-10T05:39:45.286Z,98500.69
2023-08-10T05:40:48.628Z,98504.91
2023-08-10T05:41:51.477Z,98507.19
2023-08-10T05:42:54.514Z,98504.38
2023-08-10T05:43:57.515Z,98513.06
2023-08-10T05:45:01.083Z,98509.63
2023-08-10T05:46:04.201Z,98511.00
2023-08-10T05:47:07.926Z,98519.66
2023-08-10T05:48:12.772Z,98517.16
2023-08-10T05:49:15.599Z,98516.34
2023-08-10T05:50:19.280Z,98509.13
2023-08-10T05:51:22.357Z,98513.91
2023-08-10T05:52:25.374Z,98516.50
2023-08-10T05:53:28.516Z,98509.16
2023-08-10T05:54:31.596Z,98512.41
2023-08-10T05:55:35.507Z,98512.34
2023-08-10T05:56:38.442Z,98516.47
2023-08-10T05:57:41.947Z,98513.75
2023-08-10T05:58:44.814Z,98514.81
2023-08-10T05:59:47.834Z,98512.31
2023-08-10T06:00:50.813Z,98516.19
2023-08-10T06:01:54.798Z,98508.69
2023-08-10T06:02:58.058Z,98512.13
2023-08-10T06:04:01.411Z,98516.75
2023-08-10T06:05:07.769Z,98509.72
2023-08-10T06:06:11.297Z,98514.47
2023-08-10T06:07:14.193Z,98517.91
2023-08-10T06:08:17.135Z,98516.16
2023-08-10T06:09:20.913Z,98519.84
2023-08-10T06:10:24.114Z,98517.19
2023-08-10T06:11:41.997Z,98521.03
2023-08-10T06:12:49.611Z,98518.06
2023-08-10T06:13:52.510Z,98517.22
2023-08-10T06:14:55.582Z,98520.53
2023-08-10T06:15:58.824Z,98523.47
2023-08-10T06:17:02.107Z,98519.28
2023-08-10T06:18:05.566Z,98515.66
2023-08-10T06:19:08.608Z,98516.13
2023-08-10T06:20:14.850Z,98520.44
2023-08-10T06:21:17.810Z,98516.34
2023-08-10T06:22:21.058Z,98523.31
2023-08-10T06:23:24.165Z,98521.91
2023-08-10T06:24:27.009Z,98523.22
2023-08-10T06:25:32.409Z,98525.53
2023-08-10T06:26:35.495Z,98520.38
2023-08-10T06:27:38.540Z,98525.34
2023-08-10T06:28:41.508Z,98525.44
2023-08-10T06:29:44.451Z,98520.94
2023-08-10T06:30:47.589Z,98530.44
2023-08-10T06:31:50.749Z,98533.97
2023-08-10T06:32:53.800Z,98536.28
2023-08-10T06:33:56.700Z,98530.87
2023-08-10T06:34:59.646Z,98524.59
2023-08-10T06:36:02.779Z,98529.78
2023-08-10T06:37:05.864Z,98528.91
2023-08-10T06:38:09.290Z,98526.25
2023-08-10T06:39:12.306Z,98530.81
2023-08-10T06:40:16.971Z,98534.69
2023-08-10T06:41:19.985Z,98536.22
2023-08-10T06:42:23.822Z,98542.44
2023-08-10T06:43:26.778Z,98540.66
2023-08-10T06:44:30.743Z,98539.41
2023-08-10T06:45:34.279Z,98544.19
2023-08-10T06:46:37.294Z,98544.50
2023-08-10T06:47:40.457Z,98543.25
2023-08-10T06:48:43.499Z,98549.47
2023-08-10T06:49:46.434Z,98553.06
2023-08-10T06:50:49.869Z,98553.19
2023-08-10T06:51:52.893Z,98556.94
2023-08-10T06:52:55.950Z,98557.47
2023-08-10T06:53:58.887Z,98557.69
2023-08-10T06:55:01.798Z,98559.31
2023-08-10T06:57:13.028Z,98559.22
2023-08-10T06:58:44.096Z,98564.16
2023-08-10T07:00:46.026Z,98554.97
2023-08-10T07:01:49.225Z,98557.16
2023-08-10T07:02:56.235Z,98553.81
2023-08-10T07:03:59.793Z,98557.59
2023-08-10T07:05:02.875Z,98554.25
2023-08-10T07:06:06.134Z,98552.50
2023-08-10T07:07:09.079Z,98558.91
2023-08-10T07:08:12.154Z,98566.94
2023-08-10T07:09:15.017Z,98568.94
2023-08-10T07:10:17.960Z,98564.97
2023-08-10T07:11:23.488Z,98566.19
2023-08-10T07:12:26.378Z,98568.00
2023-08-10T07:13:29.450Z,98564.97
2023-08-10T07:14:32.474Z,98564.81
2023-08-10T07:15:35.419Z,98564.00
2023-08-10T07:16:38.405Z,98572.06
2023-08-10T07:17:41.383Z,98568.53
2023-08-10T07:18:44.588Z,98566.06
2023-08-10T07:19:47.452Z,98566.16
2023-08-10T07:20:50.306Z,98571.19
2023-08-10T07:21:56.601Z,98565.34
2023-08-10T07:22:59.549Z,98573.03
2023-08-10T07:24:02.509Z,98572.94
2023-08-10T07:25:07.390Z,98577.56
2023-08-10T07:26:11.547Z,98574.63
2023-08-10T07:27:14.735Z,98581.16
2023-08-10T07:28:17.981Z,98573.41
2023-08-10T07:29:21.280Z,98573.34
2023-08-10T07:30:24.302Z,98575.06
2023-08-10T07:31:33.269Z,98578.41
2023-08-10T07:32:36.329Z,98576.69
2023-08-10T07:33:39.374Z,98577.00
2023-08-10T07:34:42.366Z,98573.38
2023-08-10T07:35:46.354Z,98568.44
2023-08-10T07:36:50.147Z,98578.91
2023-08-10T07:37:53.053Z,98571.34
2023-08-10T07:38:57.322Z,98571.13
2023-08-10T07:40:00.246Z,98572.03
2023-08-10T07:41:03.257Z,98575.19
2023-08-10T07:42:06.498Z,98577.03
2023-08-10T07:43:09.848Z,98571.31
2023-08-10T07:44:12.859Z,98575.94
2023-08-10T07:45:15.920Z,98570.06
2023-08-10T07:46:18.832Z,98573.50
2023-08-10T07:47:21.754Z,98570.16
2023-08-10T07:48:24.558Z,98574.97
2023-08-10T07:49:29.122Z,98573.69
2023-08-10T07:50:32.823Z,98578.66
2023-08-10T07:51:35.914Z,98575.16
2023-08-10T07:52:38.820Z,98574.75
2023-08-10T07:53:41.884Z,98575.16
2023-08-10T07:54:45.383Z,98577.19
2023-08-10T07:55:48.373Z,98573.22
2023-08-10T07:56:51.629Z,98577.28
2023-08-10T07:57:54.873Z,98576.63
2023-08-10T07:58:57.911Z,98573.00
2023-08-10T08:00:06.398Z,98574.53
2023-08-10T08:01:09.865Z,98575.59
2023-08-10T08:02:12.900Z,98576.97
2023-08-10T08:03:15.936Z,98583.06
2023-08-10T08:05:22.864Z,98580.00
2023-08-10T08:06:25.856Z,98575.75
2023-08-10T08:07:31.897Z,98589.06
2023-08-10T08:08:34.768Z,98581.22
2023-08-10T08:09:37.738Z,98573.91
2023-08-10T08:10:41.274Z,98585.06
2023-08-10T08:11:44.161Z,98586.50
2023-08-10T08:12:47.056Z,98581.44
2023-08-10T08:13:50.041Z,98581.94
2023-08-10T08:14:53.623Z,98576.28
2023-08-10T08:15:58.725Z,98585.00
2023-08-10T08:17:01.583Z,98586.19
2023-08-10T08:18:41.807Z,98585.00
2023-08-10T08:19:44.737Z,98586.13
2023-08-10T08:20:47.815Z,98590.41
2023-08-10T08:21:50.784Z,98591.84
2023-08-10T08:22:53.607Z,98591.94
2023-08-10T08:23:57.337Z,98589.06
2023-08-10T08:25:00.396Z,98586.84
2023-08-10T08:26:03.376Z,98586.41
2023-08-10T08:27:06.396Z,98592.84
2023-08-10T08:28:09.302Z,98592.53
2023-08-10T08:29:12.965Z,98595.06
2023-08-10T08:30:16.059Z,98593.78
2023-08-10T08:31:19.095Z,98590.34
2023-08-10T08:32:37.004Z,98593.59
2023-08-10T08:33:44.955Z,98590.75
2023-08-10T08:34:47.925Z,98595.78
2023-08-10T08:35:52.017Z,98595.34
2023-08-10T08:36:55.137Z,98586.75
2023-08-10T08:37:57.953Z,98602.34
2023-08-10T08:39:01.329Z,98595.53
2023-08-10T08:40:04.675Z,98607.22
2023-08-10T08:41:10.216Z,98602.59
2023-08-10T08:42:13.706Z,98598.69
2023-08-10T08:43:18.426Z,98602.28
2023-08-10T08:44:21.537Z,98604.19
2023-08-10T08:45:24.753Z,98605.09
2023-08-10T08:46:32.451Z,98597.38
2023-08-10T08:47:35.584Z,98597.94
2023-08-10T08:48:39.099Z,98596.53
2023-08-10T08:49:41.979Z,98602.22
2023-08-10T08:50:49.588Z,98603.00
2023-08-10T08:51:52.646Z,98600.25
2023-08-10T08:52:55.813Z,98599.13
2023-08-10T08:54:03.598Z,98595.84
2023-08-10T08:55:08.795Z,98602.28
2023-08-10T08:56:11.779Z,98604.69
2023-08-10T08:57:14.818Z,98605.75
2023-08-10T08:58:18.776Z,98602.12
2023-08-10T08:59:22.313Z,98598.75
2023-08-10T09:00:25.698Z,98594.16
2023-08-10T09:01:28.712Z,98597.94
2023-08-10T09:02:32.428Z,98599.41
2023-08-10T09:03:36.338Z,98600.97
2023-08-10T09:04:39.253Z,98602.16
2023-08-10T09:05:42.127Z,98602.56
2023-08-10T09:06:47.086Z,98601.81
2023-08-10T09:07:51.337Z,98601.84
2023-08-10T09:08:54.241Z,98604.84
2023-08-10T09:09:57.858Z,98604.47
2023-08-10T09:11:01.037Z,98606.31
2023-08-10T09:12:29.531Z,98606.75
2023-08-10T09:13:33.469Z,98611.13
2023-08-10T09:14:36.443Z,98609.28
2023-08-10T09:15:39.784Z,98611.59
2023-08-10T09:16:46.419Z,98615.44
2023-08-10T09:17:54.196Z,98606.22
2023-08-10T09:18:57.243Z,98602.38
2023-08-10T09:20:00.758Z,98611.25
2023-08-10T09:21:09.046Z,98610.44
2023-08-10T09:22:27.494Z,98606.19
2023-08-10T09:23:30.404Z,98604.31
2023-08-10T09:24:33.614Z,98600.50
2023-08-10T09:25:44.072Z,98604.31
2023-08-10T09:26:47.614Z,98598.44
2023-08-10T09:27:51.471Z,98595.38
2023-08-10T09:28:54.791Z,98602.66
2023-08-10T09:30:05.189Z,98595.47
2023-08-10T09:31:13.892Z,98599.34
2023-08-10T09:32:21.272Z,98603.16
2023-08-10T09:33:34.196Z,98602.31
2023-08-10T09:34:37.324Z,98595.34
2023-08-10T09:35:40.289Z,98601.38
2023-08-10T09:36:54.037Z,98593.59
2023-08-10T09:38:02.798Z,98604.47
2023-08-10T09:39:05.803Z,98605.44
2023-08-10T09:40:12.600Z,98607.03
2023-08-10T09:41:16.694Z,98594.75
2023-08-10T09:42:19.632Z,98593.25
2023-08-10T09:43:25.476Z,98602.81
2023-08-10T09:44:49.076Z,98604.38
2023-08-10T09:46:05.669Z,98605.56
2023-08-10T09:47:08.721Z,98601.69
2023-08-10T09:48:13.110Z,98611.69
2023-08-10T09:49:19.111Z,98601.28
2023-08-10T09:50:22.242Z,98603.59
2023-08-10T09:51:25.151Z,98608.59
2023-08-10T09:52:28.662Z,98602.47
2023-08-10T09:53:33.467Z,98600.94
2023-08-10T09:54:38.474Z,98600.94
2023-08-10T09:55:42.421Z,98600.53
2023-08-10T09:56:45.493Z,98607.06
2023-08-10T09:57:49.582Z,98606.69
2023-08-10T09:58:52.780Z,98607.31
2023-08-10T09:59:56.196Z,98596.97
2023-08-10T10:00:59.580Z,98605.81
2023-08-10T10:02:03.838Z,98597.72
2023-08-10T10:03:07.125Z,98608.88
2023-08-10T10:04:10.311Z,98600.34
2023-08-10T10:05:22.402Z,98597.16
2023-08-10T10:06:34.121Z,98604.84
2023-08-10T10:07:37.486Z,98597.16
2023-08-10T10:08:44.836Z,98592.94
2023-08-10T10:09:50.951Z,98595.62
2023-08-10T10:10:59.400Z,98591.44
2023-08-10T10:12:04.781Z,98593.66
2023-08-10T10:13:14.494Z,98596.94
2023-08-10T10:14:17.734Z,98606.81
2023-08-10T10:15:22.767Z,98598.28
2023-08-10T10:16:27.246Z,98598.78
2023-08-10T10:17:30.592Z,98601.88
2023-08-10T10:18:36.676Z,98594.59
2023-08-10T10:19:44.365Z,98595.09
2023-08-10T10:20:47.795Z,98591.97
2023-08-10T10:21:51.032Z,98595.94
2023-08-10T10:22:54.031Z,98603.22
2023-08-10T10:24:02.512Z,98603.25
2023-08-10T10:25:05.715Z,98607.97
2023-08-10T10:26:08.930Z,98594.72
2023-08-10T10:27:14.212Z,98586.38
2023-08-10T10:28:17.706Z,98591.72
2023-08-10T10:29:20.738Z,98589.59
2023-08-10T10:30:25.473Z,98589.13
2023-08-10T10:31:28.696Z,98586.41
2023-08-10T10:32:31.926Z,98591.47
2023-08-10T10:33:36.078Z,98592.81
2023-08-10T10:34:40.469Z,98591.56
2023-08-10T10:36:23.075Z,98590.16
2023-08-10T10:37:34.386Z,98586.41
2023-08-10T10:38:42.864Z,98584.28
2023-08-10T10:39:49.702Z,98582.91
2023-08-10T10:40:52.925Z,98597.06
2023-08-10T10:41:55.878Z,98595.03
2023-08-10T10:43:04.798Z,98589.09
2023-08-10T10:44:10.128Z,98591.84
2023-08-10T10:45:16.157Z,98581.03
2023-08-10T10:46:34.826Z,98585.47
2023-08-10T10:47:40.120Z,98582.59
2023-08-10T10:48:50.459Z,98577.81
2023-08-10T10:49:54.373Z,98585.28
2023-08-10T10:50:58.854Z,98584.13
2023-08-10T10:52:06.267Z,98582.97
2023-08-10T10:53:13.336Z,98589.41
2023-08-10T10:54:16.475Z,98589.75
2023-08-10T10:55:19.587Z,98582.06
2023-08-10T10:56:23.276Z,98579.81
2023-08-10T10:57:27.870Z,98577.00
2023-08-10T10:58:32.670Z,98581.53
2023-08-10T10:59:35.697Z,98576.94
2023-08-10T11:00:39.683Z,98579.09
2023-08-10T11:01:46.809Z,98575.25
2023-08-10T11:02:50.646Z,98574.16
2023-08-10T11:03:56.044Z,98578.25
2023-08-10T11:04:58.999Z,98570.22
2023-08-10T11:06:03.712Z,98570.25
2023-08-10T11:07:08.659Z,98582.16
2023-08-10T11:08:12.294Z,98577.81
2023-08-10T11:09:15.195Z,98581.88
2023-08-10T11:10:21.686Z,98576.69
2023-08-10T11:11:24.786Z,98582.97
2023-08-10T11:12:29.242Z,98577.19
2023-08-10T11:13:32.690Z,98570.75
2023-08-10T11:14:35.733Z,98570.31
2023-08-10T11:15:38.694Z,98573.41
2023-08-10T11:16:46.092Z,98572.88
2023-08-10T11:17:52.780Z,98572.59
2023-08-10T11:18:59.816Z,98572.47
2023-08-10T11:20:08.526Z,98561.25
2023-08-10T11:21:13.281Z,98561.41
2023-08-10T11:22:18.940Z,98566.69
2023-08-10T11:23:22.087Z,98567.63
2023-08-10T11:24:25.241Z,98565.63
2023-08-10T11:25:34.075Z,98566.41
2023-08-10T11:26:37.982Z,98569.78
2023-08-10T11:27:46.170Z,98564.59
2023-08-10T11:28:49.444Z,98566.66
2023-08-10T11:29:55.562Z,98554.75
2023-08-10T11:31:09.147Z,98556.28
2023-08-10T11:32:13.210Z,98560.75
2023-08-10T11:34:26.184Z,98567.22
2023-08-10T11:35:29.466Z,98554.66
2023-08-10T11:36:32.420Z,98558.00
2023-08-10T11:37:37.349Z,98551.72
2023-08-10T11:38:48.530Z,98548.09
2023-08-10T11:39:51.746Z,98555.00
2023-08-10T11:40:59.192Z,98552.69
2023-08-10T11:42:02.181Z,98559.47
2023-08-10T11:43:15.776Z,98556.62
2023-08-10T11:44:27.522Z,98556.94
2023-08-10T11:45:31.032Z,98559.34
2023-08-10T11:46:34.088Z,98556.34
2023-08-10T11:48:02.587Z,98558.78
2023-08-10T11:49:08.360Z,98559.38
2023-08-10T11:50:14.892Z,98566.84
2023-08-10T11:51:19.496Z,98561.41
2023-08-10T11:52:22.446Z,98561.34
2023-08-10T11:53:26.691Z,98557.28
2023-08-10T11:54:36.549Z,98559.31
2023-08-10T11:55:47.873Z,98563.38
2023-08-10T11:56:50.847Z,98551.34
2023-08-10T11:57:56.526Z,98554.84
2023-08-10T11:59:00.215Z,98554.09
2023-08-10T12:00:40.082Z,98551.53
2023-08-10T12:01:55.813Z,98553.03
2023-08-10T12:03:03.929Z,98558.16
2023-08-10T12:04:12.981Z,98562.59
2023-08-10T12:05:16.225Z,98555.81
2023-08-10T12:06:20.046Z,98561.22
2023-08-10T12:07:25.174Z,98558.41
2023-08-10T12:08:32.326Z,98552.19
2023-08-10T12:09:38.662Z,98556.66
2023-08-10T12:10:49.328Z,98552.75
2023-08-10T12:13:03.053Z,98556.97
2023-08-10T12:14:11.486Z,98550.53
2023-08-10T12:15:18.204Z,98549.59
2023-08-10T12:16:23.064Z,98557.31
2023-08-10T12:17:26.197Z,98542.81
2023-08-10T12:18:29.180Z,98548.72
2023-08-10T12:19:32.155Z,98547.19
2023-08-10T12:20:35.536Z,98539.34
2023-08-10T12:21:38.641Z,98538.75
2023-08-10T12:22:41.733Z,98546.84
2023-08-10T12:23:45.460Z,98537.00
2023-08-10T12:24:48.391Z,98536.63
2023-08-10T12:25:51.648Z,98533.53
2023-08-10T12:26:54.690Z,98533.50
2023-08-10T12:27:57.634Z,98520.06
2023-08-10T12:29:03.327Z,98527.50
2023-08-10T12:30:10.373Z,98530.59
2023-08-10T12:31:13.483Z,98527.63
2023-08-10T12:32:16.602Z,98532.75
2023-08-10T12:33:20.669Z,98522.16
2023-08-10T12:34:23.614Z,98513.84
2023-08-10T12:35:27.606Z,98527.31
2023-08-10T12:36:30.573Z,98526.12
2023-08-10T12:37:33.636Z,98529.06
2023-08-10T12:38:36.594Z,98529.66
2023-08-10T12:39:39.490Z,98528.31
2023-08-10T12:40:42.587Z,98528.84
2023-08-10T12:41:45.626Z,98530.72
2023-08-10T12:42:49.364Z,98540.78
2023-08-10T12:43:52.414Z,98534.00
2023-08-10T12:44:55.371Z,98540.13